JAL605 RJTT-RJFU
Flight info
| Callsign | JAL605 |
|---|---|
| Flight time | N/A |
| Altitude | 38000 |
| Route | TIARA GUSRO Y20 KAMMY Y204 OHGIE |
| Aircraft | B738/M-SDE2E3FGHIRWXY/LB1 |
Departure
| Time | N/A |
|---|---|
| Airport | Tokyo Haneda International Airport (RJTT) |
Arrival
| Time | 2026-05-01 09:28 |
|---|---|
| Airport | Nagasaki Airport (RJFU) |
| Time | Latitude | Longitude | Altitude | Speed | Heading |
|---|---|---|---|---|---|
| 2026-05-01 08:54 | 34.43874 | 132.62699 | 37770 ft | 409 kts | 257° |
| 2026-05-01 08:54 | 34.42941 | 132.59429 | 37798 ft | 409 kts | 257° |
| 2026-05-01 08:54 | 34.41108 | 132.52952 | 37790 ft | 409 kts | 257° |
| 2026-05-01 08:55 | 34.39276 | 132.46427 | 37803 ft | 408 kts | 258° |
| 2026-05-01 08:55 | 34.37449 | 132.39912 | 37781 ft | 409 kts | 258° |
| 2026-05-01 08:56 | 34.35630 | 132.33442 | 37807 ft | 408 kts | 258° |
| 2026-05-01 08:56 | 34.33802 | 132.26956 | 37818 ft | 407 kts | 258° |
| 2026-05-01 08:57 | 34.31966 | 132.20456 | 37821 ft | 408 kts | 258° |
| 2026-05-01 08:57 | 34.30126 | 132.13958 | 37784 ft | 407 kts | 258° |
| 2026-05-01 08:58 | 34.28297 | 132.07514 | 37815 ft | 407 kts | 258° |
| 2026-05-01 08:58 | 34.26453 | 132.01030 | 37807 ft | 408 kts | 258° |
| 2026-05-01 08:59 | 34.24598 | 131.94541 | 37821 ft | 408 kts | 258° |
| 2026-05-01 08:59 | 34.22745 | 131.88033 | 37827 ft | 408 kts | 258° |
| 2026-05-01 09:00 | 34.20890 | 131.81585 | 37819 ft | 408 kts | 258° |
| 2026-05-01 09:00 | 34.19032 | 131.75108 | 37818 ft | 407 kts | 258° |
| 2026-05-01 09:01 | 34.17173 | 131.68635 | 37826 ft | 406 kts | 259° |
| 2026-05-01 09:01 | 34.15330 | 131.62240 | 37823 ft | 406 kts | 258° |
| 2026-05-01 09:02 | 34.13477 | 131.55826 | 37838 ft | 403 kts | 259° |
| 2026-05-01 09:02 | 34.11627 | 131.49443 | 37829 ft | 401 kts | 259° |
| 2026-05-01 09:03 | 34.09781 | 131.43081 | 37832 ft | 399 kts | 259° |
| 2026-05-01 09:03 | 34.07961 | 131.36818 | 37840 ft | 397 kts | 259° |
| 2026-05-01 09:04 | 34.06054 | 131.30549 | 37385 ft | 406 kts | 254° |
| 2026-05-01 09:04 | 34.04814 | 131.27512 | 36999 ft | 403 kts | 253° |
| 2026-05-01 09:04 | 34.03537 | 131.24524 | 36547 ft | 397 kts | 253° |
| 2026-05-01 09:05 | 34.02274 | 131.21571 | 35957 ft | 396 kts | 254° |
| 2026-05-01 09:05 | 34.01025 | 131.18615 | 35334 ft | 395 kts | 254° |
| 2026-05-01 09:05 | 33.99793 | 131.15688 | 34701 ft | 395 kts | 255° |
| 2026-05-01 09:05 | 33.98551 | 131.12716 | 34122 ft | 394 kts | 256° |
| 2026-05-01 09:06 | 33.97324 | 131.09781 | 33629 ft | 390 kts | 256° |
| 2026-05-01 09:06 | 33.96112 | 131.06878 | 33127 ft | 386 kts | 256° |
| 2026-05-01 09:06 | 33.94913 | 131.04016 | 32670 ft | 378 kts | 256° |
| 2026-05-01 09:06 | 33.93750 | 131.01242 | 32371 ft | 368 kts | 257° |
| 2026-05-01 09:07 | 33.92607 | 130.98519 | 32103 ft | 362 kts | 257° |
| 2026-05-01 09:07 | 33.91472 | 130.95786 | 31867 ft | 368 kts | 257° |
| 2026-05-01 09:07 | 33.90337 | 130.93032 | 31602 ft | 372 kts | 257° |
| 2026-05-01 09:07 | 33.89181 | 130.90261 | 31180 ft | 367 kts | 257° |
| 2026-05-01 09:08 | 33.88035 | 130.87533 | 30741 ft | 363 kts | 257° |
| 2026-05-01 09:08 | 33.86901 | 130.84833 | 30331 ft | 359 kts | 258° |
| 2026-05-01 09:08 | 33.85778 | 130.82157 | 29862 ft | 356 kts | 257° |
| 2026-05-01 09:08 | 33.84681 | 130.79538 | 29402 ft | 351 kts | 257° |
| 2026-05-01 09:09 | 33.83583 | 130.76927 | 28969 ft | 348 kts | 257° |
| 2026-05-01 09:09 | 33.82469 | 130.74354 | 28532 ft | 344 kts | 257° |
| 2026-05-01 09:09 | 33.81400 | 130.71804 | 28124 ft | 339 kts | 257° |
| 2026-05-01 09:09 | 33.80349 | 130.69274 | 27686 ft | 336 kts | 257° |
| 2026-05-01 09:10 | 33.79306 | 130.66769 | 27270 ft | 334 kts | 257° |
| 2026-05-01 09:10 | 33.78268 | 130.64282 | 26850 ft | 332 kts | 256° |
| 2026-05-01 09:10 | 33.77234 | 130.61810 | 26441 ft | 330 kts | 256° |
| 2026-05-01 09:10 | 33.76193 | 130.59318 | 26065 ft | 341 kts | 256° |
| 2026-05-01 09:11 | 33.75107 | 130.56719 | 25586 ft | 350 kts | 255° |
| 2026-05-01 09:11 | 33.74003 | 130.54118 | 25188 ft | 348 kts | 254° |
| 2026-05-01 09:11 | 33.72906 | 130.51537 | 24753 ft | 345 kts | 254° |
| 2026-05-01 09:11 | 33.71836 | 130.49009 | 24334 ft | 343 kts | 254° |
| 2026-05-01 09:12 | 33.70758 | 130.46461 | 23875 ft | 342 kts | 254° |
| 2026-05-01 09:12 | 33.69682 | 130.43918 | 23440 ft | 341 kts | 254° |
| 2026-05-01 09:12 | 33.68513 | 130.41426 | 22926 ft | 349 kts | 245° |
| 2026-05-01 09:12 | 33.66878 | 130.39201 | 22467 ft | 360 kts | 235° |
| 2026-05-01 09:13 | 33.64889 | 130.37272 | 21788 ft | 378 kts | 223° |
| 2026-05-01 09:13 | 33.62551 | 130.35723 | 21216 ft | 383 kts | 218° |
| 2026-05-01 09:13 | 33.60210 | 130.34313 | 20600 ft | 377 kts | 217° |
| 2026-05-01 09:13 | 33.57866 | 130.32924 | 19868 ft | 375 kts | 217° |
| 2026-05-01 09:14 | 33.55531 | 130.31529 | 19248 ft | 370 kts | 217° |
| 2026-05-01 09:14 | 33.53254 | 130.30160 | 18794 ft | 361 kts | 217° |
| 2026-05-01 09:14 | 33.51053 | 130.28823 | 18380 ft | 356 kts | 217° |
| 2026-05-01 09:14 | 33.48843 | 130.27463 | 17949 ft | 355 kts | 217° |
| 2026-05-01 09:15 | 33.46660 | 130.26069 | 17510 ft | 356 kts | 216° |
| 2026-05-01 09:15 | 33.44448 | 130.24709 | 17057 ft | 356 kts | 216° |
| 2026-05-01 09:15 | 33.42245 | 130.23380 | 16656 ft | 354 kts | 215° |
| 2026-05-01 09:15 | 33.40053 | 130.22057 | 16258 ft | 352 kts | 216° |
| 2026-05-01 09:16 | 33.37875 | 130.20729 | 15834 ft | 350 kts | 216° |
| 2026-05-01 09:16 | 33.35744 | 130.19424 | 15460 ft | 348 kts | 216° |
| 2026-05-01 09:16 | 33.33571 | 130.18129 | 15068 ft | 351 kts | 210° |
| 2026-05-01 09:17 | 33.28598 | 130.17448 | 14056 ft | 362 kts | 187° |
| 2026-05-01 09:17 | 33.26079 | 130.17354 | 13307 ft | 362 kts | 188° |
| 2026-05-01 09:17 | 33.21180 | 130.17072 | 12435 ft | 343 kts | 188° |
| 2026-05-01 09:18 | 33.18803 | 130.16920 | 11909 ft | 339 kts | 188° |
| 2026-05-01 09:18 | 33.14167 | 130.16618 | 11160 ft | 337 kts | 188° |
| 2026-05-01 09:19 | 33.09364 | 130.16306 | 10485 ft | 349 kts | 187° |
| 2026-05-01 09:19 | 33.06967 | 130.16156 | 10314 ft | 341 kts | 187° |
| 2026-05-01 09:19 | 33.04621 | 130.16010 | 10177 ft | 332 kts | 187° |
| 2026-05-01 09:20 | 33.00105 | 130.15726 | 9912 ft | 316 kts | 187° |
| 2026-05-01 09:20 | 32.95730 | 130.15447 | 9049 ft | 308 kts | 187° |
| 2026-05-01 09:21 | 32.91590 | 130.15181 | 8458 ft | 293 kts | 187° |
| 2026-05-01 09:21 | 32.89541 | 130.15052 | 8045 ft | 297 kts | 187° |
| 2026-05-01 09:21 | 32.85411 | 130.14796 | 7057 ft | 295 kts | 187° |
| 2026-05-01 09:22 | 32.81331 | 130.14492 | 6013 ft | 291 kts | 195° |
| 2026-05-01 09:22 | 32.78172 | 130.11946 | 4684 ft | 269 kts | 234° |
| 2026-05-01 09:23 | 32.77297 | 130.10150 | 3986 ft | 245 kts | 264° |
| 2026-05-01 09:23 | 32.78154 | 130.06806 | 3407 ft | 195 kts | 301° |
| 2026-05-01 09:24 | 32.79634 | 130.04547 | 2974 ft | 153 kts | 308° |
| 2026-05-01 09:24 | 32.80330 | 130.03648 | 2763 ft | 141 kts | 310° |
| 2026-05-01 09:24 | 32.81659 | 130.02136 | 2418 ft | 129 kts | 313° |
| 2026-05-01 09:25 | 32.82995 | 130.00694 | 2053 ft | 130 kts | 314° |
| 2026-05-01 09:25 | 32.84308 | 129.99284 | 1720 ft | 131 kts | 313° |
| 2026-05-01 09:26 | 32.84995 | 129.98544 | 1539 ft | 133 kts | 313° |
| 2026-05-01 09:26 | 32.86167 | 129.97286 | 1238 ft | 132 kts | 315° |
| 2026-05-01 09:26 | 32.86874 | 129.96526 | 1068 ft | 141 kts | 315° |
| 2026-05-01 09:27 | 32.88307 | 129.94988 | 666 ft | 132 kts | 313° |
| 2026-05-01 09:27 | 32.88986 | 129.94276 | 514 ft | 129 kts | 314° |
| 2026-05-01 09:27 | 32.89646 | 129.93565 | 308 ft | 129 kts | 311° |
| 2026-05-01 09:28 | 32.90305 | 129.92837 | 157 ft | 129 kts | 311° |
| 2026-05-01 09:28 | 32.90972 | 129.92125 | 16 ft | 124 kts | 313° |
| 2026-05-01 09:28 | 32.91515 | 129.91519 | 15 ft | 85 kts | 320° |
| 2026-05-01 09:28 | 32.91830 | 129.91185 | 12 ft | 37 kts | 318° |
| 2026-05-01 09:29 | 32.92041 | 129.91207 | 11 ft | 10 kts | 77° |
| 2026-05-01 09:29 | 32.92013 | 129.91280 | 9 ft | 10 kts | 139° |
| 2026-05-01 09:30 | 32.91895 | 129.91404 | 7 ft | 12 kts | 139° |
| 2026-05-01 09:30 | 32.91834 | 129.91468 | 9 ft | 12 kts | 139° |
| 2026-05-01 09:30 | 32.91701 | 129.91611 | 11 ft | 19 kts | 137° |
| 2026-05-01 09:31 | 32.91602 | 129.91719 | 12 ft | 19 kts | 138° |
| 2026-05-01 09:31 | 32.91472 | 129.91856 | 12 ft | 19 kts | 138° |
| 2026-05-01 09:31 | 32.91336 | 129.92010 | 13 ft | 11 kts | 111° |
| 2026-05-01 09:32 | 32.91376 | 129.92077 | 12 ft | 10 kts | 46° |
| 2026-05-01 09:32 | 32.91422 | 129.92134 | 13 ft | 0 kts | 47° |